Time;durP1;ratioP1;P1;durP2;ratioP2;P2;SDS_P1;SDS_P2;PMS_P1;PMS_P2;Temp;Humidity;BMP_temperature;BMP_pressure;BME280_temperature;BME280_humidity;BME280_pressure;Samples;Min_cycle;Max_cycle;Signal;HPM_P1;HPM_P2
2022/10/21 00:00:55;;;;;;;51.77;28.95;;;;;;;1.18;75.91;101131.00;1718881;82;27939;-75
2022/10/21 00:03:25;;;;;;;55.45;30.72;;;;;;;1.17;75.91;101132.55;1721602;81;25766;-74
2022/10/21 00:05:53;;;;;;;40.35;22.02;;;;;;;1.15;75.82;101141.30;1738993;81;25984;-74
2022/10/21 00:08:21;;;;;;;54.70;27.90;;;;;;;1.13;76.11;101134.86;1706869;83;25747;-74
2022/10/21 00:10:55;;;;;;;52.33;28.15;;;;;;;1.11;76.18;101134.28;1724056;81;25368;-74
2022/10/21 00:13:24;;;;;;;45.45;25.00;;;;;;;1.08;75.85;101134.72;1728313;81;27182;-73
2022/10/21 00:16:10;;;;;;;51.37;25.02;;;;;;;1.07;76.46;101130.42;1736051;81;25479;-73
2022/10/21 00:18:40;;;;;;;42.67;24.12;;;;;;;1.06;76.40;101127.48;1746547;81;25567;-75
2022/10/21 00:21:14;;;;;;;48.38;26.45;;;;;;;1.03;76.78;101120.73;1744865;81;26293;-74
2022/10/21 00:23:42;;;;;;;50.17;26.37;;;;;;;1.02;76.76;101123.62;1740235;81;25642;-74
2022/10/21 00:26:12;;;;;;;46.63;24.90;;;;;;;1.01;76.76;101122.02;1722218;82;27379;-72
2022/10/21 00:28:40;;;;;;;47.95;26.68;;;;;;;0.99;77.31;101120.06;1723557;82;25577;-75
2022/10/21 00:31:11;;;;;;;44.23;24.52;;;;;;;0.99;77.18;101112.91;1739010;82;25220;-75
2022/10/21 00:33:39;;;;;;;55.38;25.32;;;;;;;1.00;77.31;101116.38;1724212;82;25634;-75
2022/10/21 00:36:07;;;;;;;44.48;23.95;;;;;;;0.98;77.31;101106.47;1727459;82;25572;-75
2022/10/21 00:38:35;;;;;;;47.70;25.23;;;;;;;0.98;77.48;101100.61;1691836;83;27239;-75
2022/10/21 00:41:02;;;;;;;47.55;25.65;;;;;;;0.97;77.49;101107.00;1725302;82;25395;-75
2022/10/21 00:43:29;;;;;;;46.00;26.65;;;;;;;0.96;77.28;101109.35;1733559;81;25576;-75
2022/10/21 00:46:02;;;;;;;46.80;26.12;;;;;;;0.94;77.26;101103.44;1724770;82;25777;-75
2022/10/21 00:48:38;;;;;;;43.98;25.37;;;;;;;0.92;77.75;101106.33;1731592;82;25136;-76
2022/10/21 00:51:16;;;;;;;41.35;23.10;;;;;;;0.91;77.77;101098.56;1690236;84;27388;-75
2022/10/21 00:53:47;;;;;;;42.33;24.82;;;;;;;0.90;78.05;101096.92;1735744;82;25776;-75
2022/10/21 00:56:25;;;;;;;44.05;25.82;;;;;;;0.89;78.03;101093.98;1739924;82;25345;-75
2022/10/21 00:58:57;;;;;;;44.27;24.37;;;;;;;0.87;78.01;101088.88;1721028;82;25600;-75
2022/10/21 01:01:24;;;;;;;45.23;24.12;;;;;;;0.88;78.64;101093.67;1728621;82;25681;-74
2022/10/21 01:03:52;;;;;;;45.75;24.15;;;;;;;0.89;78.54;101097.98;1748042;79;27737;-75
2022/10/21 01:06:25;;;;;;;43.38;23.02;;;;;;;0.89;78.88;101088.13;1730484;81;25561;-75
2022/10/21 01:08:53;;;;;;;44.50;25.95;;;;;;;0.93;79.50;101093.81;1716312;82;25779;-73
2022/10/21 01:11:22;;;;;;;42.38;23.77;;;;;;;0.93;78.91;101097.28;1731401;81;25789;-75
2022/10/21 01:14:16;;;;;;;42.27;23.70;;;;;;;0.92;78.72;101086.88;1720493;82;25660;-74
2022/10/21 01:16:58;;;;;;;44.70;23.07;;;;;;;0.92;78.84;101090.34;1720736;82;27163;-74
2022/10/21 01:20:24;;;;;;;40.58;23.00;;;;;;;0.93;79.02;101086.62;1719075;82;25570;-74
2022/10/21 01:23:33;;;;;;;41.85;20.77;;;;;;;0.93;79.07;101086.62;1677090;85;25386;-75
2022/10/21 01:26:06;;;;;;;44.10;22.25;;;;;;;0.93;79.39;101081.83;1670635;85;25751;-74
2022/10/21 01:29:04;;;;;;;40.80;22.45;;;;;;;0.93;79.75;101082.62;1581882;88;25675;-74
2022/10/21 01:32:13;;;;;;;44.05;22.65;;;;;;;0.95;79.81;101085.59;1563736;91;27875;-75
2022/10/21 01:35:17;;;;;;;40.17;21.60;;;;;;;0.95;79.49;101085.07;1520709;93;25438;-75
2022/10/21 01:37:55;;;;;;;37.93;20.23;;;;;;;0.96;79.63;101080.58;1536214;92;25429;-75
2022/10/21 01:40:37;;;;;;;36.90;21.07;;;;;;;0.96;80.02;101079.25;1518591;93;25633;-75
2022/10/21 01:43:12;;;;;;;48.10;21.93;;;;;;;0.97;79.97;101071.03;1496231;95;25658;-75
2022/10/21 01:45:48;;;;;;;47.20;21.62;;;;;;;0.96;79.91;101076.58;1488028;95;27470;-74
2022/10/21 01:48:23;;;;;;;40.78;22.17;;;;;;;0.96;79.92;101074.72;1496893;95;25361;-74
2022/10/21 01:50:58;;;;;;;40.03;22.35;;;;;;;0.96;79.81;101080.58;1501074;94;25364;-75
2022/10/21 01:53:30;;;;;;;41.40;23.07;;;;;;;0.95;79.69;101076.27;1502283;92;25743;-75
2022/10/21 01:56:00;;;;;;;41.00;22.05;;;;;;;0.96;79.64;101076.05;1532379;90;25596;-75
2022/10/21 01:58:31;;;;;;;40.28;21.52;;;;;;;0.95;79.40;101077.61;1590556;88;27141;-74
2022/10/21 02:01:02;;;;;;;37.20;21.10;;;;;;;0.93;79.60;101072.50;1585546;89;25285;-74
2022/10/21 02:03:34;;;;;;;40.92;21.52;;;;;;;0.92;79.70;101068.23;1583410;90;25506;-74
2022/10/21 02:06:01;;;;;;;38.17;21.85;;;;;;;0.91;79.53;101064.73;1607295;87;25640;-74
2022/10/21 02:08:29;;;;;;;38.60;22.30;;;;;;;0.89;79.58;101056.16;1635002;86;25476;-76
2022/10/21 02:11:00;;;;;;;38.88;21.25;;;;;;;0.88;79.37;101053.72;1635162;86;27213;-76
2022/10/21 02:13:35;;;;;;;40.45;21.65;;;;;;;0.85;79.67;101047.01;1581828;89;25292;-75
2022/10/21 02:16:07;;;;;;;41.53;21.37;;;;;;;0.84;79.79;101044.04;1603412;89;25720;-75
2022/10/21 02:18:34;;;;;;;34.50;20.05;;;;;;;0.84;79.57;101036.05;1569444;90;25673;-75
2022/10/21 02:21:10;;;;;;;49.53;21.73;;;;;;;0.82;79.94;101035.97;1637870;86;25406;-74
2022/10/21 02:23:54;;;;;;;41.80;21.90;;;;;;;0.79;80.10;101033.78;1654800;85;27392;-75
2022/10/21 02:26:25;;;;;;;35.55;19.48;;;;;;;0.77;80.15;101022.52;1655749;86;25623;-75
2022/10/21 02:28:55;;;;;;;36.60;20.37;;;;;;;0.76;80.06;101024.90;1680690;84;25680;-75
2022/10/21 02:32:11;;;;;;;38.67;21.77;;;;;;;0.73;80.13;101019.48;1678576;85;33010;-75
2022/10/21 02:35:08;;;;;;;39.98;21.87;;;;;;;0.72;80.29;101016.55;1708753;83;25516;-77
2022/10/21 02:37:57;;;;;;;36.75;20.55;;;;;;;0.71;80.51;101011.73;1714535;83;27268;-76
2022/10/21 02:40:33;;;;;;;36.08;19.57;;;;;;;0.72;80.49;101011.23;1713651;83;25316;-75
2022/10/21 02:43:17;;;;;;;41.42;22.22;;;;;;;0.71;80.53;101006.93;1716497;82;25633;-74
2022/10/21 02:45:47;;;;;;;41.58;21.15;;;;;;;0.71;80.26;100997.08;1717255;82;26148;-76
2022/10/21 02:48:14;;;;;;;39.15;20.32;;;;;;;0.70;80.55;100994.14;1717247;82;25781;-74
2022/10/21 02:50:42;;;;;;;35.58;19.87;;;;;;;0.71;80.58;100997.61;1715685;82;27287;-74
2022/10/21 02:53:11;;;;;;;36.53;20.48;;;;;;;0.70;80.43;100988.02;1710954;83;25674;-75
2022/10/21 02:55:38;;;;;;;37.80;21.00;;;;;;;0.70;80.46;100982.69;1691471;83;25329;-74
2022/10/21 02:58:05;;;;;;;32.42;18.70;;;;;;;0.69;80.48;100979.19;1709507;83;25629;-74
2022/10/21 03:00:32;;;;;;;37.10;20.35;;;;;;;0.69;80.65;100977.05;1716868;83;25699;-74
2022/10/21 03:03:00;;;;;;;40.78;20.88;;;;;;;0.68;80.22;100968.77;1713803;83;27753;-74
2022/10/21 03:05:27;;;;;;;38.15;19.60;;;;;;;0.68;80.26;100967.43;1717612;82;25436;-74
2022/10/21 03:07:54;;;;;;;42.60;22.00;;;;;;;0.67;80.25;100966.63;1695289;83;25581;-74
2022/10/21 03:10:21;;;;;;;38.95;21.48;;;;;;;0.66;80.25;100967.66;1718600;82;26252;-75
2022/10/21 03:12:49;;;;;;;36.17;20.23;;;;;;;0.66;80.29;100966.85;1717190;83;25125;-75
2022/10/21 03:15:16;;;;;;;32.83;18.73;;;;;;;0.66;80.77;100970.84;1691667;83;27216;-75
2022/10/21 03:17:44;;;;;;;36.95;19.67;;;;;;;0.67;80.95;100973.81;1681962;84;25577;-74
2022/10/21 03:20:11;;;;;;;38.08;20.25;;;;;;;0.67;80.78;100959.97;1680074;84;25138;-74
2022/10/21 03:22:38;;;;;;;34.18;19.12;;;;;;;0.68;80.81;100959.44;1641571;85;25598;-74
2022/10/21 03:25:07;;;;;;;36.55;19.32;;;;;;;0.67;80.88;100960.50;1636063;85;25382;-74
2022/10/21 03:27:34;;;;;;;33.28;19.60;;;;;;;0.68;80.85;100962.94;1681149;85;27793;-74
2022/10/21 03:30:05;;;;;;;35.92;18.35;;;;;;;0.69;80.59;100959.75;1635489;86;25238;-74
2022/10/21 03:32:32;;;;;;;40.00;18.17;;;;;;;0.69;80.69;100953.09;1637007;85;25910;-74
2022/10/21 03:35:00;;;;;;;35.98;19.57;;;;;;;0.69;80.51;100939.77;1676165;84;25629;-74
2022/10/21 03:37:27;;;;;;;32.88;18.02;;;;;;;0.68;80.37;100924.33;1676787;85;25538;-74
2022/10/21 03:39:54;;;;;;;33.73;18.62;;;;;;;0.69;80.88;100929.92;1675835;84;27983;-74
2022/10/21 03:42:21;;;;;;;32.73;18.07;;;;;;;0.69;80.93;100933.92;1672560;84;25466;-74
2022/10/21 03:44:48;;;;;;;34.45;18.75;;;;;;;0.68;80.77;100934.98;1680305;85;25157;-74
2022/10/21 03:47:15;;;;;;;29.70;18.15;;;;;;;0.68;80.69;100916.34;1672622;85;25707;-75
2022/10/21 03:49:42;;;;;;;37.40;19.02;;;;;;;0.67;80.79;100916.03;1681554;84;25380;-75
2022/10/21 03:52:09;;;;;;;31.42;19.23;;;;;;;0.67;80.78;100917.89;1718038;82;27082;-74
2022/10/21 03:54:36;;;;;;;33.88;18.77;;;;;;;0.67;80.68;100921.89;1682638;85;25625;-75
2022/10/21 03:57:03;;;;;;;34.80;18.67;;;;;;;0.66;80.98;100911.73;1680193;84;25323;-75
2022/10/21 03:59:31;;;;;;;34.65;18.52;;;;;;;0.66;80.92;100907.74;1679899;85;25612;-75
2022/10/21 04:01:58;;;;;;;38.05;18.23;;;;;;;0.65;80.92;100904.80;1641277;87;25652;-75
2022/10/21 04:04:25;;;;;;;35.35;19.85;;;;;;;0.64;80.94;100897.84;1714505;82;27198;-75
2022/10/21 04:06:52;;;;;;;33.35;19.23;;;;;;;0.65;81.06;100903.48;1711437;83;25815;-75
2022/10/21 04:09:19;;;;;;;38.33;18.55;;;;;;;0.65;81.16;100903.48;1716103;82;25382;-75
2022/10/21 04:11:47;;;;;;;34.78;18.60;;;;;;;0.65;81.05;100900.81;1715054;83;25670;-75
2022/10/21 04:14:14;;;;;;;32.83;18.30;;;;;;;0.64;81.01;100901.03;1682318;84;25418;-75
2022/10/21 04:16:41;;;;;;;29.65;18.05;;;;;;;0.62;80.92;100905.78;1680237;83;26965;-75
2022/10/21 04:19:16;;;;;;;35.85;18.55;;;;;;;0.64;81.13;100899.17;1717041;82;25593;-76
2022/10/21 04:21:44;;;;;;;32.13;16.87;;;;;;;0.63;81.08;100902.06;1716709;83;25655;-75
2022/10/21 04:24:12;;;;;;;35.08;19.17;;;;;;;0.63;81.21;100893.58;1716303;83;25623;-76
2022/10/21 04:26:41;;;;;;;37.35;18.27;;;;;;;0.62;80.96;100897.27;1716403;82;25632;-75
2022/10/21 04:29:08;;;;;;;34.93;19.80;;;;;;;0.64;80.87;100894.37;1716103;83;27200;-75
2022/10/21 04:31:35;;;;;;;32.90;18.32;;;;;;;0.63;80.99;100888.25;1681262;85;25690;-75
2022/10/21 04:34:03;;;;;;;34.13;18.23;;;;;;;0.64;81.14;100885.06;1684738;83;25328;-75
2022/10/21 04:36:30;;;;;;;35.50;19.07;;;;;;;0.65;81.16;100886.70;1722455;83;25661;-75
2022/10/21 04:38:58;;;;;;;34.73;18.98;;;;;;;0.62;81.08;100881.30;1722818;83;25515;-74
2022/10/21 04:41:25;;;;;;;31.77;17.80;;;;;;;0.61;80.90;100880.19;1711237;83;27179;-74
2022/10/21 04:43:52;;;;;;;36.08;18.80;;;;;;;0.61;80.98;100879.66;1718586;83;25565;-74
2022/10/21 04:46:20;;;;;;;35.13;18.48;;;;;;;0.62;81.18;100880.49;1697782;84;25377;-74
2022/10/21 04:48:47;;;;;;;30.43;17.87;;;;;;;0.63;81.31;100878.94;1698026;84;25627;-75
2022/10/21 04:51:15;;;;;;;31.65;17.17;;;;;;;0.64;81.33;100863.77;1703297;83;25555;-75
2022/10/21 04:53:42;;;;;;;31.33;18.48;;;;;;;0.64;81.32;100863.23;1697933;84;26753;-75
2022/10/21 04:56:09;;;;;;;32.03;17.70;;;;;;;0.62;81.41;100865.31;1697867;84;25406;-75
2022/10/21 04:58:36;;;;;;;30.65;18.00;;;;;;;0.63;81.46;100860.30;1719534;83;25592;-75
2022/10/21 05:01:04;;;;;;;31.45;17.00;;;;;;;0.65;81.58;100861.41;1721677;82;25625;-75
2022/10/21 05:03:31;;;;;;;32.25;17.60;;;;;;;0.68;81.64;100854.27;1720276;83;25446;-75
2022/10/21 05:05:58;;;;;;;33.83;17.67;;;;;;;0.71;81.71;100855.14;1720316;83;27242;-75
2022/10/21 05:08:25;;;;;;;30.97;17.07;;;;;;;0.74;81.75;100850.70;1719836;83;25646;-75
2022/10/21 05:11:00;;;;;;;32.10;17.85;;;;;;;0.78;81.73;100855.03;1722782;81;25209;-75
2022/10/21 05:13:28;;;;;;;31.23;18.30;;;;;;;0.81;81.73;100859.38;1721450;83;25813;-74
2022/10/21 05:16:01;;;;;;;36.90;18.12;;;;;;;0.84;81.71;100850.13;1703549;82;25679;-76
2022/10/21 05:18:29;;;;;;;31.68;17.95;;;;;;;0.89;81.82;100844.92;1722259;83;27231;-76
2022/10/21 05:20:57;;;;;;;31.48;17.80;;;;;;;0.90;81.73;100847.86;1693907;82;25698;-76
2022/10/21 05:23:26;;;;;;;37.98;19.30;;;;;;;0.93;81.75;100854.87;1722070;83;25201;-76
2022/10/21 05:25:53;;;;;;;35.63;18.60;;;;;;;0.98;81.76;100854.72;1702106;83;26446;-75
2022/10/21 05:28:21;;;;;;;33.42;18.25;;;;;;;1.00;81.85;100850.77;1711528;82;25421;-74
2022/10/21 05:30:48;;;;;;;32.63;18.82;;;;;;;1.04;81.91;100848.44;1713787;83;27204;-75
2022/10/21 05:33:16;;;;;;;34.35;18.57;;;;;;;1.06;81.80;100847.19;1717914;83;25670;-76
2022/10/21 05:35:43;;;;;;;33.10;17.80;;;;;;;1.09;81.76;100828.08;1717946;82;25258;-76
2022/10/21 05:38:10;;;;;;;32.50;19.52;;;;;;;1.11;81.80;100813.99;1718525;83;25686;-75
2022/10/21 05:40:37;;;;;;;34.48;18.75;;;;;;;1.14;81.84;100810.03;1715668;82;25620;-75
2022/10/21 05:43:04;;;;;;;44.50;21.37;;;;;;;1.18;81.81;100799.74;1719506;82;28014;-76
2022/10/21 05:45:32;;;;;;;39.27;22.45;;;;;;;1.19;81.77;100793.36;1723119;82;25513;-75
2022/10/21 05:47:59;;;;;;;41.95;21.68;;;;;;;1.23;81.80;100807.84;1721261;82;25438;-75
2022/10/21 05:50:26;;;;;;;38.95;19.85;;;;;;;1.26;81.89;100806.02;1721987;83;26341;-75
2022/10/21 05:52:57;;;;;;;34.13;19.00;;;;;;;1.29;81.94;100804.23;1719396;82;25382;-75
2022/10/21 05:55:25;;;;;;;38.90;20.82;;;;;;;1.32;81.97;100805.63;1718054;83;27269;-75
2022/10/21 05:57:52;;;;;;;33.33;19.25;;;;;;;1.39;82.23;100804.44;1720301;83;26370;-75
2022/10/21 06:00:19;;;;;;;34.40;19.35;;;;;;;1.46;82.33;100802.98;1721242;82;25573;-75
2022/10/21 06:02:47;;;;;;;32.70;17.55;;;;;;;1.53;82.40;100802.31;1720052;83;26132;-75
2022/10/21 06:05:14;;;;;;;34.18;18.20;;;;;;;1.58;82.48;100797.09;1721707;83;25597;-75
2022/10/21 06:07:41;;;;;;;34.05;18.98;;;;;;;1.70;82.61;100810.92;1720736;83;27207;-74
2022/10/21 06:10:10;;;;;;;26.50;15.85;;;;;;;1.74;82.29;100811.55;1721187;83;25669;-74
2022/10/21 06:12:38;;;;;;;34.23;17.67;;;;;;;1.77;82.19;100815.08;1721941;83;32395;-74
2022/10/21 06:15:07;;;;;;;31.27;16.55;;;;;;;1.82;82.29;100819.18;1719599;83;25665;-74
2022/10/21 06:17:34;;;;;;;27.35;15.28;;;;;;;1.88;82.12;100817.95;1722213;83;25485;-74
2022/10/21 06:20:01;;;;;;;27.80;14.78;;;;;;;1.92;81.90;100822.55;1723016;82;27271;-74
2022/10/21 06:22:29;;;;;;;26.55;15.88;;;;;;;1.94;81.92;100821.81;1721124;83;25661;-74
2022/10/21 06:24:56;;;;;;;24.57;13.72;;;;;;;1.98;81.93;100828.27;1720432;83;25688;-74
2022/10/21 06:27:23;;;;;;;25.85;15.43;;;;;;;2.04;81.82;100823.83;1720510;82;25621;-74
2022/10/21 06:29:50;;;;;;;23.92;14.43;;;;;;;2.09;81.92;100827.93;1721156;82;25396;-74
2022/10/21 06:32:17;;;;;;;25.95;14.05;;;;;;;2.16;81.64;100819.78;1715048;82;27864;-74
2022/10/21 06:34:44;;;;;;;25.10;14.47;;;;;;;2.21;81.83;100818.03;1704804;83;25698;-73
2022/10/21 06:37:11;;;;;;;26.05;14.90;;;;;;;2.28;81.65;100821.05;1683453;84;25354;-74
2022/10/21 06:39:38;;;;;;;27.85;13.68;;;;;;;2.30;81.33;100818.95;1662080;85;26310;-74
2022/10/21 06:42:05;;;;;;;24.43;14.03;;;;;;;2.33;81.24;100824.61;1662771;85;25413;-74
2022/10/21 06:44:32;;;;;;;25.35;14.78;;;;;;;2.34;81.13;100822.23;1685459;84;27314;-74
2022/10/21 06:46:59;;;;;;;24.47;13.62;;;;;;;2.35;81.09;100813.19;1656473;86;25633;-74
2022/10/21 06:49:27;;;;;;;23.98;13.22;;;;;;;2.41;81.22;100818.88;1685863;84;25621;-74
2022/10/21 06:51:54;;;;;;;24.30;13.93;;;;;;;2.48;81.26;100813.39;1686139;85;25580;-73
2022/10/21 06:54:21;;;;;;;23.35;13.38;;;;;;;2.53;81.13;100816.14;1687457;84;25570;-73
2022/10/21 06:56:48;;;;;;;20.72;12.55;;;;;;;2.59;81.18;100802.36;1686688;84;27170;-74
2022/10/21 06:59:15;;;;;;;26.30;14.18;;;;;;;2.71;81.78;100808.96;1687379;84;25630;-73
2022/10/21 07:01:42;;;;;;;25.88;13.48;;;;;;;2.86;82.21;100807.86;1684826;84;25620;-73
2022/10/21 07:04:10;;;;;;;25.02;13.88;;;;;;;3.11;83.18;100806.59;1685556;84;26276;-73
2022/10/21 07:06:37;;;;;;;21.68;12.80;;;;;;;3.32;82.09;100808.48;1686035;84;25373;-73
2022/10/21 07:09:06;;;;;;;21.20;12.88;;;;;;;3.57;82.07;100801.02;1687098;84;27164;-73
2022/10/21 07:11:34;;;;;;;20.05;12.63;;;;;;;3.88;82.11;100794.96;1687346;84;25401;-73
2022/10/21 07:14:01;;;;;;;20.70;12.70;;;;;;;4.10;80.41;100791.41;1680842;83;25672;-74
2022/10/21 07:16:35;;;;;;;25.60;13.55;;;;;;;4.36;81.45;100787.62;1684387;84;25684;-74
2022/10/21 07:19:03;;;;;;;22.95;12.25;;;;;;;4.75;82.00;100788.22;1685000;84;25655;-74
2022/10/21 07:21:32;;;;;;;19.70;12.03;;;;;;;5.07;79.91;100789.20;1656710;86;27292;-74
2022/10/21 07:24:00;;;;;;;20.12;11.55;;;;;;;5.21;78.64;100789.82;1655958;85;25529;-74
2022/10/21 07:26:31;;;;;;;18.87;11.63;;;;;;;5.54;79.07;100799.09;1657117;85;25682;-74
2022/10/21 07:28:59;;;;;;;17.70;11.45;;;;;;;5.66;77.40;100803.69;1656466;85;26256;-73
2022/10/21 07:31:33;;;;;;;17.65;11.33;;;;;;;5.69;76.33;100802.37;1657289;86;25702;-74
2022/10/21 07:34:03;;;;;;;20.37;11.95;;;;;;;5.69;75.80;100805.84;1653595;85;27755;-73
2022/10/21 07:36:35;;;;;;;22.82;12.20;;;;;;;5.75;76.13;100810.14;1660622;86;25663;-75
2022/10/21 07:39:08;;;;;;;20.20;11.73;;;;;;;6.02;76.35;100808.38;1657929;86;25718;-74
2022/10/21 07:41:40;;;;;;;20.10;10.70;;;;;;;6.22;73.60;100823.19;1660272;86;25688;-75
2022/10/21 07:44:09;;;;;;;19.23;11.85;;;;;;;6.33;73.98;100799.81;1665110;84;25626;-74
2022/10/21 07:46:40;;;;;;;17.57;10.40;;;;;;;6.61;75.17;100795.80;1663075;84;27897;-75
2022/10/21 07:49:09;;;;;;;18.77;11.30;;;;;;;6.89;74.36;100795.75;1677833;84;25365;-74
2022/10/21 07:51:37;;;;;;;17.70;11.77;;;;;;;7.05;72.91;100792.51;1653944;85;25593;-75
2022/10/21 07:54:05;;;;;;;19.65;11.83;;;;;;;7.11;71.94;100781.19;1656429;85;26247;-73
2022/10/21 07:56:37;;;;;;;19.25;11.70;;;;;;;7.28;72.66;100774.14;1654735;85;25487;-73
2022/10/21 07:59:04;;;;;;;18.10;11.43;;;;;;;7.60;73.71;100772.38;1647634;85;27403;-74
2022/10/21 08:01:34;;;;;;;18.98;11.22;;;;;;;7.99;71.93;100760.05;1653266;85;25458;-74
2022/10/21 08:04:02;;;;;;;17.45;11.53;;;;;;;8.20;70.65;100763.39;1660715;85;25614;-74
2022/10/21 08:06:31;;;;;;;17.25;10.68;;;;;;;8.29;69.49;100767.11;1657168;85;26145;-74
2022/10/21 08:08:59;;;;;;;18.98;11.60;;;;;;;8.31;69.92;100760.89;1654642;86;25687;-75
2022/10/21 08:11:30;;;;;;;18.98;10.23;;;;;;;8.32;68.63;100765.73;1610303;87;27194;-76
2022/10/21 08:13:58;;;;;;;17.67;9.70;;;;;;;8.22;68.23;100750.44;1657425;84;25618;-74
2022/10/21 08:16:26;;;;;;;17.65;9.78;;;;;;;8.01;66.52;100751.94;1668224;84;25629;-73
2022/10/21 08:18:55;;;;;;;16.27;9.85;;;;;;;7.77;67.06;100747.78;1656706;85;25713;-73
2022/10/21 08:21:22;;;;;;;15.78;9.68;;;;;;;7.65;67.35;100751.37;1657332;86;25346;-73
2022/10/21 08:23:49;;;;;;;13.70;8.98;;;;;;;7.51;67.48;100753.86;1656375;86;27289;-74
2022/10/21 08:26:16;;;;;;;15.28;8.70;;;;;;;7.35;67.31;100746.38;1656851;85;25568;-73
2022/10/21 08:28:44;;;;;;;14.15;8.45;;;;;;;7.27;67.95;100747.78;1663206;84;25554;-74
2022/10/21 08:31:15;;;;;;;12.58;8.55;;;;;;;7.29;68.25;100742.92;1646408;85;25687;-74
2022/10/21 08:33:43;;;;;;;14.35;8.85;;;;;;;7.30;68.34;100734.30;1637635;86;25597;-75
2022/10/21 08:36:15;;;;;;;11.93;8.28;;;;;;;7.33;68.12;100728.37;1697624;82;27231;-71
2022/10/21 08:38:43;;;;;;;13.18;8.05;;;;;;;7.28;67.21;100737.26;1719031;81;25751;-70
2022/10/21 08:41:48;;;;;;;13.70;8.30;;;;;;;7.22;67.91;100726.79;1724121;81;25646;-70
2022/10/21 08:44:30;;;;;;;15.08;8.45;;;;;;;7.21;68.13;100720.61;1712773;83;25864;-71
2022/10/21 08:47:18;;;;;;;13.43;8.30;;;;;;;7.33;68.56;100706.84;1716757;83;25442;-72
2022/10/21 08:49:54;;;;;;;14.10;7.53;;;;;;;7.45;68.09;100710.00;1713799;83;27158;-71
2022/10/21 08:52:26;;;;;;;14.05;8.18;;;;;;;7.60;68.46;100703.73;1714447;82;25662;-72
2022/10/21 08:54:59;;;;;;;17.67;8.98;;;;;;;7.67;69.04;100702.88;1693039;83;25339;-72
2022/10/21 08:57:28;;;;;;;16.60;10.28;;;;;;;7.88;69.36;100691.95;1695887;83;25609;-72
2022/10/21 08:59:56;;;;;;;12.20;8.18;;;;;;;8.11;69.59;100696.38;1717043;82;25596;-72
2022/10/21 09:02:49;;;;;;;14.33;8.78;;;;;;;8.27;68.67;100684.36;1720906;83;27736;-72
2022/10/21 09:05:42;;;;;;;16.07;8.68;;;;;;;8.35;68.64;100681.05;1666817;84;25434;-71
2022/10/21 09:08:20;;;;;;;13.13;7.90;;;;;;;8.52;67.83;100681.20;1639694;86;25634;-74
2022/10/21 09:11:26;;;;;;;11.03;7.75;;;;;;;8.64;67.74;100687.56;1640657;87;25721;-73
2022/10/21 09:14:16;;;;;;;9.63;7.20;;;;;;;8.67;66.17;100681.59;1507441;94;25436;-74
2022/10/21 09:17:04;;;;;;;12.70;8.25;;;;;;;8.62;65.98;100664.92;1458882;95;27860;-72
2022/10/21 09:20:27;;;;;;;11.97;7.72;;;;;;;8.59;65.40;100671.67;1439393;98;25906;-73
2022/10/21 09:23:03;;;;;;;11.15;7.22;;;;;;;8.52;65.67;100676.61;1440882;98;25796;-72
2022/10/21 09:25:38;;;;;;;13.68;8.28;;;;;;;8.53;65.43;100682.80;1453308;96;26202;-71
2022/10/21 09:28:14;;;;;;;12.58;7.80;;;;;;;8.49;65.62;100669.64;1438206;96;25526;-71
2022/10/21 09:30:44;;;;;;;13.60;7.33;;;;;;;8.56;66.33;100669.58;1440258;98;27347;-69
2022/10/21 09:33:22;;;;;;;10.80;7.45;;;;;;;8.70;66.37;100667.52;1482701;95;25791;-70
2022/10/21 09:36:13;;;;;;;12.30;7.50;;;;;;;8.82;66.52;100665.77;1446776;98;25567;-70
2022/10/21 09:38:45;;;;;;;11.60;8.03;;;;;;;8.95;65.79;100652.38;1517162;91;25719;-71
2022/10/21 09:41:23;;;;;;;13.78;8.08;;;;;;;9.29;65.64;100646.00;1555724;89;25719;-69
2022/10/21 09:43:51;;;;;;;11.45;7.65;;;;;;;9.58;65.66;100645.60;1590165;89;27291;-69
2022/10/21 09:46:19;;;;;;;15.10;8.75;;;;;;;10.07;67.08;100635.61;1580176;88;25697;-69
2022/10/21 09:48:55;;;;;;;11.90;7.28;;;;;;;10.73;66.37;100625.25;1565423;90;25561;-69
2022/10/21 09:51:33;;;;;;;12.80;7.35;;;;;;;11.01;63.58;100629.50;1561993;90;26360;-70
2022/10/21 09:54:13;;;;;;;12.90;7.85;;;;;;;11.11;62.48;100628.48;1639324;85;25437;-69
2022/10/21 09:57:22;;;;;;;9.58;7.20;;;;;;;11.28;62.13;100625.13;1641141;85;27135;-69
2022/10/21 09:59:57;;;;;;;9.48;7.37;;;;;;;11.40;60.76;100621.89;1668221;84;25578;-73
2022/10/21 10:02:39;;;;;;;12.95;8.43;;;;;;;11.78;62.87;100607.97;1654215;83;25658;-69
2022/10/21 10:05:37;;;;;;;10.90;7.47;;;;;;;12.39;61.57;100597.47;1685571;83;25933;-70
2022/10/21 10:08:35;;;;;;;10.65;7.55;;;;;;;12.37;58.98;100602.42;1655287;84;25658;-70
2022/10/21 10:11:14;;;;;;;10.85;7.87;;;;;;;12.37;59.55;100603.77;1678683;84;27767;-69
2022/10/21 10:13:46;;;;;;;11.43;7.43;;;;;;;12.93;60.66;100612.80;1681283;83;25605;-70
2022/10/21 10:16:27;;;;;;;13.35;7.47;;;;;;;13.63;59.11;100609.57;1681680;84;25460;-69
2022/10/21 10:19:20;;;;;;;18.42;7.58;;;;;;;14.20;59.25;100598.97;1671418;84;26256;-70
2022/10/21 10:22:10;;;;;;;10.25;7.37;;;;;;;14.59;57.06;100588.88;1659557;84;25421;-72
2022/10/21 10:24:39;;;;;;;12.43;7.87;;;;;;;14.79;56.46;100598.22;1674940;84;27193;-71
2022/10/21 10:27:16;;;;;;;;;;;;;;;15.06;55.70;100590.67;1663727;84;25728;-72
2022/10/21 10:29:52;;;;;;;11.20;7.22;;;;;;;15.43;55.89;100589.51;1619454;86;25664;-72
2022/10/21 10:32:24;;;;;;;12.98;7.58;;;;;;;15.85;54.70;100582.61;1661622;84;25706;-72
2022/10/21 10:34:58;;;;;;;12.40;6.83;;;;;;;16.16;52.66;100586.78;1633121;86;25576;-72
2022/10/21 10:37:30;;;;;;;8.98;6.70;;;;;;;16.10;51.68;100586.19;1703432;83;27838;-72
2022/10/21 10:40:00;;;;;;;9.68;6.67;;;;;;;16.09;51.79;100587.34;1662250;83;25351;-75
2022/10/21 10:42:32;;;;;;;13.05;6.65;;;;;;;16.14;51.50;100586.30;1640895;86;25621;-72
2022/10/21 10:45:05;;;;;;;9.08;6.72;;;;;;;16.14;50.77;100580.30;1647436;85;25805;-71
2022/10/21 10:47:43;;;;;;;6.80;5.70;;;;;;;16.03;50.02;100584.59;1627861;86;25407;-73
2022/10/21 10:50:49;;;;;;;7.93;5.73;;;;;;;16.29;51.42;100572.56;1641175;86;27218;-73
2022/10/21 10:53:36;;;;;;;6.45;5.25;;;;;;;16.82;50.57;100572.06;1659937;84;25775;-72
2022/10/21 10:56:24;;;;;;;7.75;5.75;;;;;;;17.43;49.80;100573.84;1654040;84;25742;-71
2022/10/21 10:59:35;;;;;;;8.73;5.70;;;;;;;17.55;48.28;100556.58;1650720;86;27207;-71
2022/10/21 11:02:19;;;;;;;7.70;5.87;;;;;;;17.89;48.49;100548.34;1623603;86;25682;-73
2022/10/21 11:05:22;;;;;;;7.20;5.50;;;;;;;18.51;47.17;100546.48;1657868;85;27226;-72
2022/10/21 11:07:57;;;;;;;7.28;5.97;;;;;;;19.08;47.41;100539.30;1650172;86;25609;-70
2022/10/21 11:10:41;;;;;;;7.42;5.65;;;;;;;19.31;43.09;100542.90;1646553;86;25346;-72
2022/10/21 11:13:18;;;;;;;10.20;6.33;;;;;;;19.21;45.36;100534.67;1646815;85;25623;-71
2022/10/21 11:16:36;;;;;;;8.55;6.20;;;;;;;19.08;42.07;100534.60;1665752;85;25496;-72
2022/10/21 11:19:35;;;;;;;9.08;5.92;;;;;;;18.73;42.19;100529.13;1670088;84;27279;-71
2022/10/21 11:22:29;;;;;;;9.65;6.47;;;;;;;18.49;42.51;100510.45;1642510;86;25633;-73
2022/10/21 11:25:19;;;;;;;11.57;6.87;;;;;;;18.05;43.66;100507.28;1657580;85;25727;-72
2022/10/21 11:27:52;;;;;;;11.05;6.37;;;;;;;17.49;43.59;100515.03;1657304;85;25734;-74
2022/10/21 11:30:22;;;;;;;11.28;6.53;;;;;;;16.98;43.93;100495.68;1657828;85;25504;-74
2022/10/21 11:33:06;;;;;;;9.30;6.28;;;;;;;16.79;44.69;100498.44;1661164;84;27866;-74
2022/10/21 11:35:54;;;;;;;9.15;6.75;;;;;;;16.88;45.37;100484.67;1650707;86;25515;-75
2022/10/21 11:39:02;;;;;;;11.03;6.70;;;;;;;17.32;45.53;100494.27;1640662;86;25680;-74
2022/10/21 11:41:49;;;;;;;9.48;6.95;;;;;;;17.28;45.32;100493.95;1637814;85;26358;-73
2022/10/21 11:44:56;;;;;;;8.70;6.33;;;;;;;17.54;44.84;100494.84;1642901;85;25433;-74
2022/10/21 11:47:43;;;;;;;10.40;7.53;;;;;;;17.65;44.73;100488.27;1592628;88;27345;-69
2022/10/21 11:50:44;;;;;;;9.25;6.90;;;;;;;17.04;43.71;100484.71;1591919;89;25753;-72